Time;durP1;ratioP1;P1;durP2;ratioP2;P2;SDS_P1;SDS_P2;PMS_P1;PMS_P2;Temp;Humidity;BMP_temperature;BMP_pressure;BME280_temperature;BME280_humidity;BME280_pressure;Samples;Min_cycle;Max_cycle;Signal;HPM_P1;HPM_P2
2022/08/16 00:00:21;;;;;;;13.38;12.02;;;21.90;99.90;;;;;;4955333;28;38130;-61
2022/08/16 00:02:48;;;;;;;16.17;12.57;;;21.90;99.90;;;;;;4956304;28;37445;-61
2022/08/16 00:05:16;;;;;;;17.40;12.68;;;21.90;99.90;;;;;;4957173;28;36991;-61
2022/08/16 00:07:44;;;;;;;20.58;14.20;;;21.90;99.90;;;;;;4957056;28;38318;-61
2022/08/16 00:10:15;;;;;;;17.30;13.00;;;21.90;99.90;;;;;;4957432;28;37945;-61
2022/08/16 00:12:43;;;;;;;16.98;13.98;;;21.90;99.90;;;;;;4956748;28;37786;-61
2022/08/16 00:15:16;;;;;;;17.00;13.57;;;21.90;99.90;;;;;;4957614;28;36724;-61
2022/08/16 00:17:43;;;;;;;;;;;21.90;99.90;;;;;;4956472;28;38329;-61
2022/08/16 00:20:14;;;;;;;22.02;14.57;;;21.80;99.90;;;;;;4956632;28;38257;-61
2022/08/16 00:22:43;;;;;;;16.08;13.07;;;21.80;99.90;;;;;;4957321;28;36513;-61
2022/08/16 00:25:14;;;;;;;17.25;13.63;;;21.70;99.90;;;;;;4957413;28;36664;-61
2022/08/16 00:27:42;;;;;;;16.15;13.60;;;21.80;99.90;;;;;;4957014;28;39396;-61
2022/08/16 00:30:12;;;;;;;18.00;13.10;;;21.80;99.90;;;;;;4955270;28;39051;-61
2022/08/16 00:32:41;;;;;;;14.50;12.13;;;21.80;99.90;;;;;;4956805;28;38068;-61
2022/08/16 00:35:12;;;;;;;17.33;13.93;;;21.80;99.90;;;;;;4957579;28;37284;-61
2022/08/16 00:37:39;;;;;;;18.88;12.93;;;21.80;99.90;;;;;;4957443;28;36427;-61
2022/08/16 00:40:07;;;;;;;15.10;12.43;;;21.90;99.90;;;;;;4956142;28;39373;-61
2022/08/16 00:42:36;;;;;;;15.10;12.25;;;21.90;99.90;;;;;;4954732;28;38027;-62
2022/08/16 00:45:08;;;;;;;15.70;13.75;;;21.90;99.90;;;;;;4955835;28;36324;-61
2022/08/16 00:47:38;;;;;;;16.38;12.80;;;21.90;99.90;;;;;;4956931;28;37184;-62
2022/08/16 00:50:07;;;;;;;13.75;12.27;;;21.90;99.90;;;;;;4956370;28;38110;-61
2022/08/16 00:52:35;;;;;;;15.13;13.00;;;21.90;99.90;;;;;;4956124;28;38351;-61
2022/08/16 00:55:02;;;;;;;15.57;11.68;;;22.00;99.90;;;;;;4953752;28;37642;-61
2022/08/16 00:57:30;;;;;;;13.50;12.02;;;22.00;99.90;;;;;;4956421;28;37583;-61
2022/08/16 01:00:00;;;;;;;14.48;12.07;;;22.00;99.90;;;;;;4956393;28;39214;-61
2022/08/16 01:02:28;;;;;;;15.30;11.95;;;22.00;99.90;;;;;;4955817;28;38681;-61
2022/08/16 01:04:55;;;;;;;13.80;11.70;;;22.00;99.90;;;;;;4958054;28;35547;-61
2022/08/16 01:07:23;;;;;;;14.80;11.63;;;22.00;99.90;;;;;;4955690;28;39068;-61
2022/08/16 01:09:50;;;;;;;17.27;12.38;;;22.10;99.90;;;;;;4956091;28;38029;-61
2022/08/16 01:12:19;;;;;;;15.00;11.93;;;22.00;99.90;;;;;;4956147;28;37737;-61
2022/08/16 01:14:51;;;;;;;16.42;12.32;;;22.00;99.90;;;;;;4957611;28;36764;-61
2022/08/16 01:17:20;;;;;;;18.77;11.90;;;22.00;99.90;;;;;;4954746;28;36350;-62
2022/08/16 01:19:52;;;;;;;14.13;11.57;;;22.00;99.90;;;;;;4956798;28;38778;-61
2022/08/16 01:22:28;;;;;;;15.65;11.85;;;22.10;99.90;;;;;;4954815;28;36951;-62
2022/08/16 01:25:02;;;;;;;15.02;10.27;;;22.10;99.90;;;;;;4956851;28;35645;-62
2022/08/16 01:27:33;;;;;;;16.27;11.45;;;22.00;99.90;;;;;;4956164;28;37100;-61
2022/08/16 01:30:05;;;;;;;11.98;10.68;;;22.00;99.90;;;;;;4955896;28;36618;-61
2022/08/16 01:32:37;;;;;;;15.95;11.02;;;22.00;99.90;;;;;;4954267;28;38232;-61
2022/08/16 01:35:07;;;;;;;14.77;11.25;;;22.00;99.90;;;;;;4959194;28;35703;-61
2022/08/16 01:37:44;;;;;;;13.85;10.02;;;21.90;99.90;;;;;;4959092;28;39259;-61
2022/08/16 01:40:15;;;;;;;14.02;12.02;;;21.90;99.90;;;;;;4957124;28;38914;-61
2022/08/16 01:42:44;;;;;;;14.73;11.40;;;21.90;99.90;;;;;;4958943;28;36765;-61
2022/08/16 01:45:11;;;;;;;14.00;10.38;;;21.90;99.90;;;;;;4958061;28;37712;-61
2022/08/16 01:47:40;;;;;;;13.60;11.50;;;21.90;99.90;;;;;;4957765;28;36347;-61
2022/08/16 01:50:08;;;;;;;20.42;12.18;;;21.90;99.90;;;;;;4959287;28;36998;-61
2022/08/16 01:52:36;;;;;;;15.18;12.63;;;21.90;99.90;;;;;;4958709;28;36539;-61
2022/08/16 01:55:07;;;;;;;13.23;10.80;;;21.90;99.90;;;;;;4959705;28;40356;-62
2022/08/16 01:57:35;;;;;;;18.00;12.38;;;21.90;99.90;;;;;;4957140;28;37384;-61
2022/08/16 02:00:07;;;;;;;17.08;12.75;;;21.90;99.90;;;;;;4956935;28;38302;-61
2022/08/16 02:02:34;;;;;;;13.43;12.07;;;21.90;99.90;;;;;;4954669;28;37706;-61
2022/08/16 02:05:01;;;;;;;14.20;12.63;;;21.90;99.90;;;;;;4957909;28;36588;-61
2022/08/16 02:07:29;;;;;;;13.32;11.93;;;21.80;99.90;;;;;;4959654;28;38342;-61
2022/08/16 02:09:56;;;;;;;15.82;13.00;;;21.80;99.90;;;;;;4959439;28;39420;-61
2022/08/16 02:12:24;;;;;;;15.68;12.23;;;21.80;99.90;;;;;;4958767;28;37111;-61
2022/08/16 02:14:53;;;;;;;13.02;11.35;;;21.70;99.90;;;;;;4960881;28;36188;-62
2022/08/16 02:17:20;;;;;;;17.00;12.27;;;21.60;99.90;;;;;;4957816;28;39936;-61
2022/08/16 02:19:48;;;;;;;14.88;10.48;;;21.60;99.90;;;;;;4957291;28;38386;-61
2022/08/16 02:22:20;;;;;;;13.57;11.77;;;21.50;99.90;;;;;;4958035;28;37776;-61
2022/08/16 02:24:47;;;;;;;13.93;11.57;;;21.50;99.90;;;;;;4956215;28;36989;-61
2022/08/16 02:27:14;;;;;;;14.52;11.98;;;21.50;99.90;;;;;;4958567;28;36379;-61
2022/08/16 02:29:42;;;;;;;14.15;12.10;;;21.40;99.90;;;;;;4957166;28;39240;-61
2022/08/16 02:32:14;;;;;;;16.20;11.55;;;21.50;99.90;;;;;;4958945;28;39302;-61
2022/08/16 02:34:41;;;;;;;14.38;11.93;;;21.40;99.90;;;;;;4957775;28;39095;-61
2022/08/16 02:37:09;;;;;;;13.40;10.73;;;21.40;99.90;;;;;;4957988;28;36395;-61
2022/08/16 02:39:37;;;;;;;16.13;12.85;;;21.40;99.90;;;;;;4957774;28;36904;-61
2022/08/16 02:42:04;;;;;;;14.20;12.70;;;21.40;99.90;;;;;;4956460;28;37708;-61
2022/08/16 02:44:32;;;;;;;18.45;13.10;;;21.40;99.90;;;;;;4955820;28;37296;-61
2022/08/16 02:46:59;;;;;;;17.15;13.20;;;21.40;99.90;;;;;;4957287;28;36473;-61
2022/08/16 02:49:28;;;;;;;15.27;13.60;;;21.40;99.90;;;;;;4958961;28;38379;-61
2022/08/16 02:51:55;;;;;;;14.77;13.27;;;21.40;99.90;;;;;;4957665;28;38962;-61
2022/08/16 02:54:23;;;;;;;14.00;12.52;;;21.40;99.90;;;;;;4957509;28;36746;-61
2022/08/16 02:56:50;;;;;;;15.27;13.57;;;21.40;99.90;;;;;;4957831;28;36940;-61
2022/08/16 02:59:17;;;;;;;18.33;14.00;;;21.40;99.90;;;;;;4957550;28;37999;-61
2022/08/16 03:01:44;;;;;;;15.93;14.15;;;21.40;99.90;;;;;;4958512;28;37209;-61
2022/08/16 03:04:12;;;;;;;15.65;13.07;;;21.40;99.90;;;;;;4957533;28;36666;-62
2022/08/16 03:06:40;;;;;;;17.48;13.50;;;21.40;99.90;;;;;;4958455;28;37575;-62
2022/08/16 03:09:08;;;;;;;15.85;13.35;;;21.50;99.90;;;;;;4958183;28;38098;-61
2022/08/16 03:11:35;;;;;;;16.83;14.18;;;21.40;99.90;;;;;;4958776;28;37558;-61
2022/08/16 03:14:03;;;;;;;16.73;13.30;;;21.50;99.90;;;;;;4955619;28;36708;-61
2022/08/16 03:16:30;;;;;;;16.70;13.52;;;21.50;99.90;;;;;;4957890;28;38114;-61
2022/08/16 03:18:58;;;;;;;16.67;14.02;;;21.50;99.90;;;;;;4957569;28;37151;-61
2022/08/16 03:21:26;;;;;;;18.67;14.38;;;21.50;99.90;;;;;;4958248;28;39147;-61
2022/08/16 03:23:55;;;;;;;16.90;13.85;;;21.50;99.90;;;;;;4956459;28;36776;-61
2022/08/16 03:26:22;;;;;;;20.65;14.20;;;21.50;99.90;;;;;;4957256;28;37654;-62
2022/08/16 03:28:49;;;;;;;14.50;12.48;;;21.50;99.90;;;;;;4957553;28;38158;-61
2022/08/16 03:31:17;;;;;;;15.82;13.32;;;21.50;99.90;;;;;;4957895;28;36599;-61
2022/08/16 03:33:44;;;;;;;14.20;12.68;;;21.40;99.90;;;;;;4957226;28;36598;-62
2022/08/16 03:36:11;;;;;;;18.35;13.27;;;21.50;99.90;;;;;;4957838;28;38240;-62
2022/08/16 03:38:39;;;;;;;17.30;12.90;;;21.40;99.90;;;;;;4958465;28;39455;-61
2022/08/16 03:41:08;;;;;;;15.68;13.00;;;21.40;99.90;;;;;;4956680;28;37949;-61
2022/08/16 03:43:36;;;;;;;17.50;13.93;;;21.40;99.90;;;;;;4956599;28;37078;-61
2022/08/16 03:46:04;;;;;;;16.15;13.55;;;21.40;99.90;;;;;;4957099;28;38395;-61
2022/08/16 03:48:33;;;;;;;15.20;13.55;;;21.40;99.90;;;;;;4956948;28;38973;-61
2022/08/16 03:51:02;;;;;;;16.38;14.50;;;21.30;99.90;;;;;;4957607;28;38398;-61
2022/08/16 03:53:30;;;;;;;16.83;14.32;;;21.30;99.90;;;;;;4957458;28;36814;-61
2022/08/16 03:55:57;;;;;;;16.75;13.48;;;21.30;99.90;;;;;;4957332;28;37437;-61
2022/08/16 03:58:26;;;;;;;16.92;12.82;;;21.30;99.90;;;;;;4955422;28;37907;-61
2022/08/16 04:00:54;;;;;;;17.35;14.40;;;21.30;99.90;;;;;;4956691;28;38713;-61
2022/08/16 04:03:21;;;;;;;19.15;15.73;;;21.30;99.90;;;;;;4958803;28;35486;-61
2022/08/16 04:05:50;;;;;;;16.63;13.35;;;21.30;99.90;;;;;;4956755;28;38434;-61
2022/08/16 04:08:20;;;;;;;15.23;13.65;;;21.30;99.90;;;;;;4956648;28;39158;-61
2022/08/16 04:10:48;;;;;;;18.30;14.55;;;21.30;99.90;;;;;;4957791;28;39311;-61
2022/08/16 04:13:15;;;;;;;16.80;15.10;;;21.30;99.90;;;;;;4957362;28;35552;-61
2022/08/16 04:15:44;;;;;;;18.70;15.13;;;21.30;99.90;;;;;;4957332;28;37352;-61
2022/08/16 04:18:11;;;;;;;16.42;14.73;;;21.30;99.90;;;;;;4957436;28;39112;-61
2022/08/16 04:20:38;;;;;;;17.95;14.82;;;21.20;99.90;;;;;;4956436;28;37905;-61
2022/08/16 04:32:11;;;;;;;16.65;14.43;;;21.10;99.90;;;;;;5156675;23;37848;-58
2022/08/16 04:35:11;;;;;;;17.55;15.45;;;21.10;99.90;;;;;;4973273;28;35847;-58
2022/08/16 04:40:08;;;;;;;16.65;14.25;;;21.10;99.90;;;;;;5395020;23;1098592;-61
2022/08/16 04:42:38;;;;;;;16.95;15.10;;;21.10;99.90;;;;;;4974095;28;37451;-61
2022/08/16 04:45:07;;;;;;;15.75;14.15;;;21.10;99.90;;;;;;4975057;28;38161;-61
2022/08/16 04:47:36;;;;;;;18.20;14.60;;;21.00;99.90;;;;;;4974395;28;39267;-61
2022/08/16 04:50:04;;;;;;;21.05;15.52;;;21.00;99.90;;;;;;4974071;28;38114;-61
2022/08/16 04:52:32;;;;;;;17.75;14.82;;;21.00;99.90;;;;;;4973713;28;38693;-61
2022/08/16 04:54:59;;;;;;;17.52;15.57;;;21.00;99.90;;;;;;4976480;28;37411;-61
2022/08/16 04:57:26;;;;;;;17.38;15.00;;;21.00;99.90;;;;;;4975390;28;37964;-61
2022/08/16 04:59:53;;;;;;;15.73;14.10;;;21.10;99.90;;;;;;4973847;28;38266;-61
2022/08/16 05:02:21;;;;;;;17.10;15.07;;;21.10;99.90;;;;;;4973616;28;36534;-61
2022/08/16 05:04:49;;;;;;;20.60;15.13;;;21.20;99.90;;;;;;4975221;28;36812;-61
2022/08/16 05:07:17;;;;;;;17.80;14.18;;;21.20;99.90;;;;;;4976152;28;39222;-61
2022/08/16 05:09:44;;;;;;;15.35;13.85;;;21.30;99.90;;;;;;4977397;28;38060;-60
2022/08/16 05:12:11;;;;;;;17.70;15.23;;;21.40;99.90;;;;;;4980308;28;37297;-61
2022/08/16 05:14:38;;;;;;;17.10;14.63;;;21.40;99.90;;;;;;4979016;28;36679;-61
2022/08/16 05:17:06;;;;;;;16.85;13.45;;;21.40;99.90;;;;;;4977304;28;35889;-61
2022/08/16 05:19:33;;;;;;;18.10;14.52;;;21.50;99.90;;;;;;4979463;28;38157;-61
2022/08/16 05:22:02;;;;;;;17.08;15.05;;;21.50;99.90;;;;;;4976395;28;38039;-61
2022/08/16 05:24:30;;;;;;;17.27;14.55;;;21.50;99.90;;;;;;4975169;28;37692;-61
2022/08/16 05:26:58;;;;;;;17.33;14.75;;;21.60;99.90;;;;;;4976769;28;37597;-61
2022/08/16 05:29:25;;;;;;;16.63;13.38;;;21.60;99.90;;;;;;4977844;28;40463;-61
2022/08/16 05:31:52;;;;;;;16.77;13.52;;;21.70;99.90;;;;;;4978620;28;38215;-61
2022/08/16 05:34:20;;;;;;;16.98;14.07;;;21.70;99.90;;;;;;4978856;28;36676;-61
2022/08/16 05:36:49;;;;;;;16.13;13.73;;;21.80;99.90;;;;;;4977397;28;36210;-61
2022/08/16 05:39:18;;;;;;;18.88;14.30;;;21.90;99.90;;;;;;4977875;28;37760;-61
2022/08/16 05:41:45;;;;;;;18.83;12.88;;;22.00;99.90;;;;;;4960481;28;37823;-61
2022/08/16 05:44:14;;;;;;;15.98;14.27;;;22.00;99.90;;;;;;4961205;28;37242;-61
2022/08/16 05:46:44;;;;;;;15.45;12.70;;;22.10;99.90;;;;;;4960722;28;37414;-61
2022/08/16 05:49:12;;;;;;;14.88;13.27;;;22.20;99.90;;;;;;4960875;28;40175;-61
2022/08/16 05:51:40;;;;;;;18.10;13.90;;;22.30;99.90;;;;;;4961211;28;37823;-61
2022/08/16 05:54:08;;;;;;;15.45;12.93;;;22.30;99.90;;;;;;4961805;28;37436;-61
2022/08/16 05:56:37;;;;;;;14.98;13.45;;;22.40;99.90;;;;;;4960708;28;36287;-61
2022/08/16 05:59:05;;;;;;;14.55;13.02;;;22.50;99.90;;;;;;4961251;28;38827;-61
2022/08/16 06:01:32;;;;;;;15.90;14.20;;;22.50;99.90;;;;;;4960522;28;36429;-61
2022/08/16 06:04:00;;;;;;;15.48;13.80;;;22.60;99.90;;;;;;4961028;28;37312;-61
2022/08/16 06:06:27;;;;;;;24.67;14.52;;;22.70;99.90;;;;;;4958576;28;37376;-61
2022/08/16 06:08:54;;;;;;;15.88;12.85;;;22.70;99.90;;;;;;4960905;28;40506;-61
2022/08/16 06:11:22;;;;;;;15.68;12.65;;;22.80;99.90;;;;;;4960012;28;37868;-61
2022/08/16 06:13:50;;;;;;;14.55;13.02;;;22.80;99.90;;;;;;4961516;28;37456;-61
2022/08/16 06:16:18;;;;;;;16.98;15.18;;;22.80;99.80;;;;;;4959502;28;36196;-61
2022/08/16 06:18:45;;;;;;;15.98;12.80;;;22.80;99.70;;;;;;4958600;28;38472;-61
2022/08/16 06:21:13;;;;;;;15.68;13.18;;;22.70;99.90;;;;;;4960377;28;38390;-61
2022/08/16 06:23:40;;;;;;;16.05;12.93;;;22.70;99.90;;;;;;4958969;28;36377;-62
2022/08/16 06:26:08;;;;;;;14.00;12.23;;;22.70;99.90;;;;;;4958521;28;39402;-61
2022/08/16 06:28:36;;;;;;;13.85;11.82;;;22.80;99.90;;;;;;4958253;28;38162;-61
2022/08/16 06:31:04;;;;;;;19.10;13.05;;;22.80;99.90;;;;;;4960908;28;37745;-61
2022/08/16 06:33:32;;;;;;;14.05;12.60;;;22.90;99.90;;;;;;4959690;28;36836;-61
2022/08/16 06:35:59;;;;;;;15.15;11.85;;;22.90;99.90;;;;;;4957896;28;38894;-60
2022/08/16 06:38:27;;;;;;;14.20;12.73;;;22.90;99.90;;;;;;4960216;28;38071;-61
2022/08/16 06:40:54;;;;;;;14.25;12.68;;;22.90;99.70;;;;;;4959339;28;39256;-61
2022/08/16 06:43:21;;;;;;;15.25;13.57;;;23.00;99.80;;;;;;4959955;28;36474;-61
2022/08/16 06:45:49;;;;;;;16.33;12.40;;;23.00;99.60;;;;;;4960056;28;37410;-61
2022/08/16 06:48:18;;;;;;;15.60;12.25;;;23.00;99.70;;;;;;4960040;28;38851;-61
2022/08/16 06:50:46;;;;;;;15.05;12.88;;;23.00;99.60;;;;;;4960262;28;38558;-61
2022/08/16 06:53:14;;;;;;;17.10;14.30;;;22.90;99.60;;;;;;4960303;28;37753;-62
2022/08/16 06:55:42;;;;;;;17.27;12.95;;;22.90;99.60;;;;;;4959262;28;36369;-62
2022/08/16 06:58:09;;;;;;;17.98;13.50;;;22.90;99.60;;;;;;4960673;28;40905;-62
2022/08/16 07:00:37;;;;;;;16.27;14.43;;;22.90;99.70;;;;;;4960487;28;38686;-61
2022/08/16 07:03:05;;;;;;;16.23;13.55;;;23.00;99.60;;;;;;4959316;28;38003;-61
2022/08/16 07:05:34;;;;;;;16.38;14.70;;;23.00;99.60;;;;;;4959109;28;36321;-62
2022/08/16 07:08:03;;;;;;;18.38;15.18;;;23.10;99.60;;;;;;4960221;28;36826;-61
2022/08/16 07:10:30;;;;;;;19.38;15.23;;;23.10;99.40;;;;;;4959429;28;38441;-61
2022/08/16 07:12:57;;;;;;;16.65;13.65;;;23.20;99.70;;;;;;4960329;28;37527;-61
2022/08/16 07:15:25;;;;;;;16.25;14.55;;;23.20;99.40;;;;;;4960966;28;37422;-62
2022/08/16 07:17:52;;;;;;;16.50;13.60;;;23.30;99.50;;;;;;4959340;28;36703;-61
2022/08/16 07:20:21;;;;;;;15.60;13.43;;;23.40;99.70;;;;;;4961984;28;39340;-61
2022/08/16 07:22:51;;;;;;;17.20;13.88;;;23.40;99.40;;;;;;4962355;28;35557;-61
2022/08/16 07:25:19;;;;;;;16.17;14.20;;;23.40;99.10;;;;;;4962341;28;38119;-61
2022/08/16 07:27:46;;;;;;;15.50;13.70;;;23.50;99.00;;;;;;4960155;28;36880;-62
2022/08/16 07:30:15;;;;;;;19.92;14.93;;;23.50;99.00;;;;;;4961013;28;38095;-61
2022/08/16 07:32:43;;;;;;;15.52;12.88;;;23.60;98.70;;;;;;4961657;28;38219;-61
2022/08/16 07:35:10;;;;;;;15.93;11.90;;;23.60;98.60;;;;;;4960303;28;37320;-61
2022/08/16 07:37:37;;;;;;;12.85;11.25;;;23.70;98.40;;;;;;4960529;28;36726;-62
2022/08/16 07:40:07;;;;;;;15.95;13.43;;;23.70;98.10;;;;;;4960854;28;39001;-61
2022/08/16 07:42:35;;;;;;;16.15;10.75;;;23.80;97.70;;;;;;4961263;28;37176;-61
2022/08/16 07:45:02;;;;;;;14.48;11.27;;;23.80;97.70;;;;;;4961028;28;37567;-61
2022/08/16 07:47:29;;;;;;;14.48;11.38;;;23.90;97.60;;;;;;4959938;28;38962;-61
2022/08/16 07:49:57;;;;;;;14.13;12.57;;;23.90;97.50;;;;;;4961016;28;37753;-61
2022/08/16 07:52:24;;;;;;;14.93;11.25;;;23.90;97.20;;;;;;4959694;28;37919;-62
2022/08/16 07:54:51;;;;;;;15.07;11.07;;;24.00;97.10;;;;;;4961969;28;38387;-61
2022/08/16 07:57:20;;;;;;;14.93;10.60;;;24.00;97.20;;;;;;4960949;28;36236;-61
2022/08/16 07:59:47;;;;;;;13.45;11.07;;;24.00;97.10;;;;;;4961558;28;37721;-61
2022/08/16 08:02:15;;;;;;;15.90;12.00;;;24.00;97.00;;;;;;4951962;28;37862;-61
2022/08/16 08:04:42;;;;;;;14.73;11.13;;;24.00;97.20;;;;;;4957104;28;38372;-61
2022/08/16 08:07:11;;;;;;;14.00;11.65;;;24.10;97.00;;;;;;4954412;28;40825;-61
2022/08/16 08:09:38;;;;;;;13.43;10.93;;;24.00;96.90;;;;;;4956083;28;39354;-61
2022/08/16 08:12:06;;;;;;;16.30;12.00;;;24.10;96.90;;;;;;4957012;28;37582;-61
2022/08/16 08:14:35;;;;;;;12.98;11.45;;;24.10;96.70;;;;;;4951803;28;38531;-61
2022/08/16 08:17:06;;;;;;;15.98;11.63;;;24.20;96.60;;;;;;4953496;28;38239;-61
2022/08/16 08:19:34;;;;;;;12.75;10.05;;;24.20;96.70;;;;;;4956558;28;37959;-61
2022/08/16 08:22:01;;;;;;;12.75;10.00;;;24.20;96.90;;;;;;4956552;28;35472;-61
2022/08/16 08:24:31;;;;;;;13.40;10.05;;;24.30;96.70;;;;;;4957148;28;37166;-61
2022/08/16 08:26:58;;;;;;;12.43;10.52;;;24.30;96.80;;;;;;4955629;28;36768;-61
2022/08/16 08:29:26;;;;;;;13.38;11.25;;;24.40;96.40;;;;;;4956018;28;38989;-61
2022/08/16 08:31:55;;;;;;;12.25;9.18;;;24.40;96.10;;;;;;4953920;28;37482;-62
2022/08/16 08:34:23;;;;;;;14.77;10.10;;;24.50;96.00;;;;;;4959900;28;37507;-62
2022/08/16 08:36:51;;;;;;;15.48;8.80;;;24.50;95.70;;;;;;4960239;28;39181;-61
2022/08/16 08:39:18;;;;;;;12.13;10.02;;;24.60;95.60;;;;;;4961269;28;38959;-61
2022/08/16 08:41:46;;;;;;;12.73;9.80;;;24.60;95.40;;;;;;4960967;28;36949;-61
2022/08/16 08:44:14;;;;;;;14.40;8.77;;;24.70;95.20;;;;;;4962680;28;39156;-61
2022/08/16 08:46:41;;;;;;;10.82;8.05;;;24.70;95.10;;;;;;4963076;28;38764;-61
2022/08/16 08:49:10;;;;;;;15.20;10.40;;;24.80;95.30;;;;;;4962387;28;36499;-61
2022/08/16 08:51:37;;;;;;;13.25;8.90;;;24.90;95.10;;;;;;4964842;28;36419;-62
2022/08/16 08:54:07;;;;;;;13.70;9.25;;;25.00;95.10;;;;;;4964194;28;40154;-61
2022/08/16 08:56:36;;;;;;;14.80;9.93;;;25.00;95.20;;;;;;4963645;28;38139;-61
2022/08/16 08:59:05;;;;;;;12.00;8.23;;;25.10;94.90;;;;;;4963841;28;37638;-61
2022/08/16 09:01:35;;;;;;;12.50;8.02;;;25.20;95.00;;;;;;4963617;28;37888;-61
2022/08/16 09:04:04;;;;;;;9.88;6.82;;;25.40;94.60;;;;;;4956106;28;38103;-62
2022/08/16 09:06:33;;;;;;;7.97;5.32;;;25.40;94.50;;;;;;4962402;28;38420;-61
2022/08/16 09:09:02;;;;;;;10.68;6.00;;;25.50;93.60;;;;;;4962904;28;39855;-62
2022/08/16 09:11:29;;;;;;;9.43;5.70;;;25.60;93.00;;;;;;4962566;28;36457;-61
2022/08/16 09:13:56;;;;;;;11.27;6.63;;;25.70;92.60;;;;;;4963850;28;36286;-62
2022/08/16 09:16:24;;;;;;;12.30;7.70;;;25.80;92.20;;;;;;4964390;28;39314;-61
2022/08/16 09:18:52;;;;;;;10.30;7.40;;;25.90;92.40;;;;;;4964778;28;37936;-61
2022/08/16 09:21:19;;;;;;;10.70;7.15;;;25.90;92.40;;;;;;4963563;28;35343;-62
2022/08/16 09:23:49;;;;;;;13.85;8.25;;;26.00;92.40;;;;;;4960100;28;37081;-61
2022/08/16 09:26:16;;;;;;;13.07;7.38;;;26.10;92.00;;;;;;4962538;28;36758;-60
2022/08/16 09:28:44;;;;;;;9.18;7.10;;;26.20;92.20;;;;;;4963232;28;37741;-61
2022/08/16 09:31:12;;;;;;;11.43;7.85;;;26.30;92.10;;;;;;4963060;28;36505;-61
2022/08/16 09:33:40;;;;;;;11.95;8.07;;;26.40;91.90;;;;;;4961355;28;38389;-61
2022/08/16 09:36:09;;;;;;;10.90;8.35;;;26.50;91.60;;;;;;4960939;28;38753;-61
2022/08/16 09:38:38;;;;;;;14.15;8.27;;;26.60;91.50;;;;;;4959969;28;37646;-61
2022/08/16 09:41:09;;;;;;;11.23;8.07;;;26.70;91.60;;;;;;4961953;28;36552;-61
2022/08/16 09:43:38;;;;;;;11.25;8.23;;;26.80;91.20;;;;;;4962276;28;37031;-61
2022/08/16 09:46:07;;;;;;;11.02;8.15;;;26.90;90.80;;;;;;4962866;28;37953;-62
2022/08/16 09:48:36;;;;;;;13.77;8.05;;;27.00;90.80;;;;;;4952533;28;39126;-61
2022/08/16 09:51:04;;;;;;;11.07;8.40;;;27.00;90.60;;;;;;4957652;28;36528;-61
2022/08/16 09:53:31;;;;;;;11.45;7.72;;;27.10;90.40;;;;;;4958082;28;37434;-61
2022/08/16 09:55:58;;;;;;;12.57;7.93;;;27.20;90.20;;;;;;4957644;28;37134;-61
2022/08/16 09:58:27;;;;;;;11.38;7.57;;;27.20;89.50;;;;;;4959174;28;37473;-61
2022/08/16 10:00:55;;;;;;;11.98;7.60;;;27.30;89.30;;;;;;4958405;28;35191;-61
2022/08/16 10:03:23;;;;;;;12.20;7.72;;;27.30;88.50;;;;;;4954621;28;37426;-61
2022/08/16 10:05:51;;;;;;;11.63;8.23;;;27.40;87.60;;;;;;4956590;28;38665;-61
2022/08/16 10:08:18;;;;;;;12.13;8.18;;;27.50;87.90;;;;;;4957510;28;37759;-61
2022/08/16 10:13:10;;;;;;;9.93;7.47;;;27.50;88.20;;;;;;4957770;28;36094;-62
2022/08/16 10:13:34;;;;;;;9.88;7.07;;;27.60;87.90;;;;;;4957279;28;39425;-61
2022/08/16 10:16:02;;;;;;;9.38;6.40;;;27.60;87.80;;;;;;4958565;28;37973;-62
2022/08/16 10:18:31;;;;;;;9.65;7.00;;;27.70;87.60;;;;;;4958281;28;37343;-61
2022/08/16 10:20:59;;;;;;;13.55;6.93;;;27.80;86.90;;;;;;4956083;28;36530;-61
2022/08/16 10:23:28;;;;;;;11.48;7.40;;;27.80;86.00;;;;;;4958497;28;38745;-61
2022/08/16 10:25:55;;;;;;;11.35;6.32;;;27.90;85.50;;;;;;4957169;28;37691;-58
2022/08/16 10:28:24;;;;;;;11.95;7.28;;;27.90;84.70;;;;;;4957067;28;37136;-58
2022/08/16 10:30:52;;;;;;;9.95;6.28;;;27.90;83.90;;;;;;4954415;28;38946;-58
2022/08/16 10:33:20;;;;;;;11.80;7.13;;;27.90;84.50;;;;;;4958484;28;40176;-58
2022/08/16 10:35:47;;;;;;;8.48;5.57;;;28.00;83.70;;;;;;4954804;28;38057;-58
2022/08/16 10:38:15;;;;;;;8.77;6.40;;;28.00;82.80;;;;;;4957147;28;36489;-58
2022/08/16 10:40:43;;;;;;;9.40;5.80;;;28.00;82.60;;;;;;4958083;28;36632;-58
2022/08/16 10:43:10;;;;;;;10.15;5.60;;;28.00;82.30;;;;;;4960351;28;37546;-58
2022/08/16 10:45:39;;;;;;;7.00;5.60;;;28.00;82.00;;;;;;4959018;28;38048;-58
2022/08/16 10:48:11;;;;;;;10.75;5.72;;;28.10;82.30;;;;;;4958316;28;38080;-58
2022/08/16 10:50:38;;;;;;;11.10;5.45;;;28.10;82.10;;;;;;4956130;28;37917;-58
2022/08/16 10:53:06;;;;;;;8.82;5.70;;;28.20;81.70;;;;;;4960983;28;36410;-58
2022/08/16 10:55:35;;;;;;;9.10;5.63;;;28.20;81.50;;;;;;4960844;28;37902;-58
2022/08/16 10:58:04;;;;;;;8.52;5.32;;;28.30;80.50;;;;;;4960815;28;36505;-58
2022/08/16 11:00:32;;;;;;;7.80;5.30;;;28.30;80.90;;;;;;4960296;28;37013;-58
2022/08/16 11:03:01;;;;;;;8.32;5.35;;;28.30;80.20;;;;;;4959578;28;38223;-58
2022/08/16 11:05:31;;;;;;;10.07;6.03;;;28.40;79.80;;;;;;4960204;28;38792;-58
2022/08/16 11:07:58;;;;;;;8.48;5.43;;;28.40;79.30;;;;;;4959357;28;38463;-58
2022/08/16 11:10:29;;;;;;;11.80;5.90;;;28.30;78.60;;;;;;4958947;28;37153;-58
2022/08/16 11:12:57;;;;;;;10.13;5.63;;;28.40;79.20;;;;;;4959390;28;36311;-58
2022/08/16 11:15:24;;;;;;;11.23;6.13;;;28.40;79.00;;;;;;4956573;28;39432;-58
2022/08/16 11:17:53;;;;;;;7.90;5.70;;;28.40;77.80;;;;;;4956063;28;37825;-58
2022/08/16 11:20:21;;;;;;;10.02;5.45;;;28.40;77.70;;;;;;4957037;28;36705;-58
2022/08/16 11:22:52;;;;;;;7.18;5.05;;;28.40;78.50;;;;;;4958084;28;38307;-58
2022/08/16 11:25:21;;;;;;;9.13;5.50;;;28.40;78.90;;;;;;4958172;28;38155;-58
2022/08/16 11:27:49;;;;;;;9.32;5.03;;;28.50;79.20;;;;;;4957056;28;37708;-58
2022/08/16 11:30:17;;;;;;;10.50;5.97;;;28.40;79.20;;;;;;4957579;28;37466;-58
2022/08/16 11:32:44;;;;;;;9.85;5.55;;;28.50;77.70;;;;;;4957045;28;36189;-58
2022/08/16 11:35:15;;;;;;;8.68;5.07;;;28.60;77.70;;;;;;4958401;28;39129;-58
2022/08/16 11:37:46;;;;;;;8.00;4.57;;;28.50;77.80;;;;;;4956451;28;37987;-58
2022/08/16 11:40:15;;;;;;;8.52;4.90;;;28.60;78.00;;;;;;4957968;28;36360;-58
2022/08/16 11:42:42;;;;;;;7.95;5.07;;;28.60;77.10;;;;;;4960060;28;39272;-58
2022/08/16 11:45:11;;;;;;;8.73;5.85;;;28.60;76.90;;;;;;4960535;28;38000;-58
2022/08/16 11:47:39;;;;;;;8.52;5.15;;;28.60;76.60;;;;;;4961327;28;38225;-58
2022/08/16 11:50:08;;;;;;;8.63;4.90;;;28.60;76.10;;;;;;4959777;28;37050;-58
2022/08/16 11:52:37;;;;;;;7.60;4.20;;;28.60;75.60;;;;;;4959423;28;36325;-58
2022/08/16 11:55:07;;;;;;;8.77;4.32;;;28.50;76.50;;;;;;4959573;28;38800;-58
2022/08/16 11:57:36;;;;;;;6.88;4.60;;;28.50;76.00;;;;;;4958982;28;37715;-58
2022/08/16 12:00:10;;;;;;;8.20;4.95;;;28.50;75.40;;;;;;4959031;28;35263;-58
2022/08/16 12:02:38;;;;;;;8.48;4.90;;;28.50;74.60;;;;;;4958424;28;38285;-58
2022/08/16 12:05:07;;;;;;;10.02;4.47;;;28.50;75.00;;;;;;4959996;28;40087;-58
2022/08/16 12:07:35;;;;;;;6.85;4.47;;;28.50;75.60;;;;;;4959842;28;39066;-58
2022/08/16 12:10:05;;;;;;;10.30;4.63;;;28.60;75.20;;;;;;4957528;28;37484;-58
2022/08/16 12:12:33;;;;;;;7.40;4.25;;;28.60;76.10;;;;;;4956897;28;38133;-58
2022/08/16 12:15:01;;;;;;;9.02;4.50;;;28.60;76.10;;;;;;4959626;28;37695;-58
2022/08/16 12:17:30;;;;;;;8.55;5.07;;;28.50;76.00;;;;;;4957046;28;37375;-58
2022/08/16 12:19:57;;;;;;;10.88;4.95;;;28.40;75.50;;;;;;4958499;28;35949;-58
2022/08/16 12:22:25;;;;;;;9.55;4.35;;;28.30;75.00;;;;;;4957651;28;37815;-58
2022/08/16 12:24:52;;;;;;;8.68;4.45;;;28.20;74.10;;;;;;4956201;28;38789;-58
2022/08/16 12:27:21;;;;;;;9.65;3.88;;;28.20;74.30;;;;;;4960025;28;37927;-58
2022/08/16 12:29:50;;;;;;;8.23;4.35;;;28.20;74.80;;;;;;4958657;28;36654;-58
2022/08/16 12:32:19;;;;;;;9.50;4.15;;;28.20;73.90;;;;;;4960136;28;40211;-58
2022/08/16 12:34:46;;;;;;;10.85;4.57;;;28.10;73.90;;;;;;4958869;28;39502;-58
2022/08/16 12:37:15;;;;;;;8.40;5.30;;;28.10;73.80;;;;;;4959460;28;37405;-58
2022/08/16 12:39:42;;;;;;;8.55;5.15;;;28.10;73.80;;;;;;4958998;28;36661;-58
2022/08/16 12:42:10;;;;;;;9.05;5.97;;;28.10;75.20;;;;;;4958715;28;37510;-58
2022/08/16 12:44:40;;;;;;;12.07;5.70;;;28.10;75.10;;;;;;4957404;28;36751;-58
2022/08/16 12:49:54;;;;;;;10.02;5.57;;;28.00;75.50;;;;;;4959619;28;38068;-58
2022/08/16 12:52:22;;;;;;;8.10;5.38;;;28.00;76.80;;;;;;4957331;28;38942;-58